< Typhoon 196308 1963 Season Typhoon 196310 >
Typhoon 196309 (BESS)
General InformationTrack Information on Google Maps || NewsDisaster Info.ResourceGoogle EarthGE AnimationAtom FeedGeoJSON
Detalied Best Track (Time Zone = UTC)
Year Month Day Hour Lat. Long. Pressure (hPa) Wind (kt) Class Image Chart
1963 7 25 18 13.1 150.9 1006 0 2 -- Chart
1963 7 26 00 13.6 149.9 1004 0 2 -- Chart
1963 7 26 06 13.2 148.8 1002 0 2 -- Chart
1963 7 26 12 12.9 147.4 1004 0 2 -- Chart
1963 7 26 18 12.8 146.1 1004 0 2 -- Chart
1963 7 27 00 12.8 144.7 1006 0 2 -- Chart
1963 7 27 06 12.8 143.7 1004 0 2 -- Chart
1963 7 27 12 12.8 142.9 1004 0 2 -- Chart
1963 7 27 18 12.7 142.2 1004 0 2 -- Chart
1963 7 28 00 12.6 141.4 1004 0 2 -- Chart
1963 7 28 06 12.8 141.0 1004 0 2 -- Chart
1963 7 28 12 13.0 140.7 1004 0 2 -- Chart
1963 7 28 18 13.1 140.4 1004 0 2 -- Chart
1963 7 29 00 13.2 140.2 1002 0 2 -- Chart
1963 7 29 06 14.3 140.4 1002 0 2 -- Chart
1963 7 29 12 15.2 141.2 1002 0 2 -- Chart
1963 7 29 18 16.0 141.9 1000 0 2 -- Chart
1963 7 30 00 16.7 142.7 998 0 9 -- Chart
1963 7 30 06 18.2 143.5 998 0 9 -- Chart
1963 7 30 12 18.7 143.6 998 0 9 -- Chart
1963 7 30 18 19.5 143.6 998 0 9 -- Chart
1963 7 31 00 19.6 142.8 998 0 9 -- Chart
1963 7 31 06 19.3 142.2 1000 0 9 -- Chart
1963 7 31 12 19.1 141.9 1000 0 9 -- Chart
1963 7 31 18 18.8 141.8 1000 0 9 -- Chart
1963 8 1 00 18.7 141.5 1000 0 9 -- Chart
1963 8 1 06 18.5 141.0 998 0 9 -- Chart
1963 8 1 12 18.3 140.5 998 0 9 -- Chart
1963 8 1 18 18.0 140.0 998 0 9 -- Chart
1963 8 2 00 17.8 139.6 998 0 9 -- Chart
1963 8 2 06 17.5 139.0 998 0 9 -- Chart
1963 8 2 12 17.7 138.8 990 0 9 -- Chart
1963 8 2 18 17.9 138.6 985 0 9 -- Chart
1963 8 3 00 18.5 138.2 980 0 9 -- Chart
1963 8 3 06 18.5 137.7 970 0 9 -- Chart
1963 8 3 12 18.6 137.4 960 0 9 -- Chart
1963 8 3 18 18.9 137.1 950 0 9 -- Chart
1963 8 4 00 19.4 137.2 940 0 9 -- Chart
1963 8 4 06 20.0 136.9 930 0 9 -- Chart
1963 8 4 12 20.6 136.7 930 0 9 -- Chart
1963 8 4 18 21.3 136.7 930 0 9 -- Chart
1963 8 5 00 21.7 136.7 930 0 9 -- Chart
1963 8 5 06 22.6 136.8 930 0 9 -- Chart
1963 8 5 12 23.4 136.9 945 0 9 -- Chart
1963 8 5 18 24.1 137.0 950 0 9 -- Chart
1963 8 6 00 25.1 136.6 955 0 9 -- Chart
1963 8 6 06 25.8 135.8 950 0 9 -- Chart
1963 8 6 12 26.2 135.5 950 0 9 -- Chart
1963 8 6 18 26.6 134.8 950 0 9 -- Chart
1963 8 7 00 27.1 134.2 950 0 9 -- Chart
1963 8 7 06 27.5 133.5 950 0 9 -- Chart
1963 8 7 12 27.8 133.4 950 0 9 -- Chart
1963 8 7 18 28.3 133.2 955 0 9 -- Chart
1963 8 8 00 29.1 133.1 960 0 9 -- Chart
1963 8 8 06 29.5 133.1 960 0 9 -- Chart
1963 8 8 12 30.2 132.9 960 0 9 -- Chart
1963 8 8 18 31.0 132.7 960 0 9 -- Chart
1963 8 9 00 32.0 132.2 965 0 9 -- Chart
1963 8 9 06 32.9 131.6 970 0 9 -- Chart
1963 8 9 12 33.6 130.9 982 0 9 -- Chart
1963 8 9 18 34.0 130.7 986 0 9 -- Chart
1963 8 10 00 34.5 130.8 990 0 9 -- Chart
1963 8 10 06 35.3 130.6 992 0 9 -- Chart
1963 8 10 12 36.0 131.1 994 0 2 -- Chart
1963 8 10 18 36.9 131.8 994 0 2 -- Chart
1963 8 11 00 37.8 132.5 994 0 2 -- Chart
1963 8 11 06 38.2 133.2 994 0 6 -- Chart
1963 8 11 12 38.9 134.1 994 0 6 -- Chart
1963 8 11 18 39.4 135.3 994 0 6 -- Chart
1963 8 12 00 39.7 136.9 996 0 6 -- Chart
1963 8 12 06 39.9 138.0 996 0 6 -- Chart
1963 8 12 12 40.0 139.0 996 0 6 -- Chart
1963 8 12 18 40.0 144.2 996 0 6 -- Chart
1963 8 13 00 41.0 147.0 996 0 6 -- Chart
1963 8 13 06 41.5 150.0 996 0 6 -- Chart
1963 8 13 12 41.7 152.5 996 0 6 -- Chart
1963 8 13 18 42.5 154.7 996 0 6 -- Chart
1963 8 14 00 43.2 157.0 996 0 6 -- Chart
1963 8 14 06 43.6 159.0 998 0 6 -- Chart
1963 8 14 12 44.0 161.0 998 0 6 -- Chart
1963 8 14 18 44.8 163.0 998 0 6 -- Chart
1963 8 15 00 46.0 165.0 998 0 6 -- Chart
1963 8 15 06 47.0 167.0 998 0 6 -- Chart
1963 8 15 12 48.5 170.6 998 0 6 -- Chart
1963 8 15 18 51.0 173.0 992 0 6 -- Chart
1963 8 16 00 53.0 176.0 990 0 6 -- Chart
1963 8 16 06 55.0 177.8 986 0 6 -- Chart
1963 8 16 12 57.0 180.2 986 0 6 -- Chart
Japan Meteorological Agency Best Track Data | Correction Date : 2013-03-19
< Typhoon 196308 1963 Season Typhoon 196310 >

Help